ADDS TAF Data INFO
IDs: Format: Raw Decoded Include METARs

Data at: 1546 UTC 18 Jan 2018

KLVS 181453Z AUTO 36008KT 10SM CLR M05/M16 A3020 RMK AO2 SLP236 T10501156 55002

KLVS 181124Z 1812/1912 02005KT P6SM SKC
  FM182000 19010KT P6SM SCT250
  FM190200 22008KT P6SM SCT250